sensor_id;sensor_type;location;lat;lon;timestamp;temperature;humidity
71801;HTU21D;59647;55.838;37.292;2023-05-10T00:00:31;8.34;43.47
71801;HTU21D;59647;55.838;37.292;2023-05-10T00:02:59;8.32;43.90
71801;HTU21D;59647;55.838;37.292;2023-05-10T00:05:27;8.30;44.46
71801;HTU21D;59647;55.838;37.292;2023-05-10T00:07:53;8.29;44.06
71801;HTU21D;59647;55.838;37.292;2023-05-10T00:10:20;8.28;44.32
71801;HTU21D;59647;55.838;37.292;2023-05-10T00:12:48;8.26;43.91
71801;HTU21D;59647;55.838;37.292;2023-05-10T00:15:13;8.27;43.70
71801;HTU21D;59647;55.838;37.292;2023-05-10T00:17:39;8.30;44.62
71801;HTU21D;59647;55.838;37.292;2023-05-10T00:20:06;8.31;44.25
71801;HTU21D;59647;55.838;37.292;2023-05-10T00:22:34;8.29;44.33
71801;HTU21D;59647;55.838;37.292;2023-05-10T00:25:00;8.28;44.29
71801;HTU21D;59647;55.838;37.292;2023-05-10T00:27:26;8.27;45.12
71801;HTU21D;59647;55.838;37.292;2023-05-10T00:29:53;8.27;44.65
71801;HTU21D;59647;55.838;37.292;2023-05-10T00:32:20;8.33;43.71
71801;HTU21D;59647;55.838;37.292;2023-05-10T00:34:46;8.41;44.21
71801;HTU21D;59647;55.838;37.292;2023-05-10T00:37:12;8.41;44.04
71801;HTU21D;59647;55.838;37.292;2023-05-10T00:39:38;8.34;44.82
71801;HTU21D;59647;55.838;37.292;2023-05-10T00:42:04;8.28;44.31
71801;HTU21D;59647;55.838;37.292;2023-05-10T00:44:30;8.24;43.98
71801;HTU21D;59647;55.838;37.292;2023-05-10T00:46:57;8.26;44.47
71801;HTU21D;59647;55.838;37.292;2023-05-10T00:49:24;8.23;45.14
71801;HTU21D;59647;55.838;37.292;2023-05-10T00:51:51;8.22;45.31
71801;HTU21D;59647;55.838;37.292;2023-05-10T00:54:17;8.21;45.35
71801;HTU21D;59647;55.838;37.292;2023-05-10T00:56:44;8.23;45.08
71801;HTU21D;59647;55.838;37.292;2023-05-10T00:59:15;8.22;46.54
71801;HTU21D;59647;55.838;37.292;2023-05-10T01:01:43;8.19;46.99
71801;HTU21D;59647;55.838;37.292;2023-05-10T01:04:15;8.19;46.97
71801;HTU21D;59647;55.838;37.292;2023-05-10T01:06:43;8.21;45.90
71801;HTU21D;59647;55.838;37.292;2023-05-10T01:09:12;8.24;46.73
71801;HTU21D;59647;55.838;37.292;2023-05-10T01:11:38;8.27;45.61
71801;HTU21D;59647;55.838;37.292;2023-05-10T01:14:06;8.23;45.50
71801;HTU21D;59647;55.838;37.292;2023-05-10T01:16:37;8.23;46.19
71801;HTU21D;59647;55.838;37.292;2023-05-10T01:19:33;8.24;47.19
71801;HTU21D;59647;55.838;37.292;2023-05-10T01:36:13;8.14;45.25
71801;HTU21D;59647;55.838;37.292;2023-05-10T01:38:56;8.17;45.12
71801;HTU21D;59647;55.838;37.292;2023-05-10T01:41:43;8.22;45.93
71801;HTU21D;59647;55.838;37.292;2023-05-10T01:47:01;8.20;47.02
71801;HTU21D;59647;55.838;37.292;2023-05-10T01:49:33;8.20;47.58
71801;HTU21D;59647;55.838;37.292;2023-05-10T01:52:06;8.20;47.98
71801;HTU21D;59647;55.838;37.292;2023-05-10T01:54:41;8.20;48.32
71801;HTU21D;59647;55.838;37.292;2023-05-10T01:57:13;8.21;47.92
71801;HTU21D;59647;55.838;37.292;2023-05-10T01:59:43;8.18;48.98
71801;HTU21D;59647;55.838;37.292;2023-05-10T02:02:13;8.13;47.29
71801;HTU21D;59647;55.838;37.292;2023-05-10T02:04:43;8.06;47.43
71801;HTU21D;59647;55.838;37.292;2023-05-10T02:07:11;8.09;46.93
71801;HTU21D;59647;55.838;37.292;2023-05-10T02:09:38;8.13;45.76
71801;HTU21D;59647;55.838;37.292;2023-05-10T02:12:07;8.17;45.83
71801;HTU21D;59647;55.838;37.292;2023-05-10T02:14:36;8.19;46.57
71801;HTU21D;59647;55.838;37.292;2023-05-10T02:17:05;8.21;47.54
71801;HTU21D;59647;55.838;37.292;2023-05-10T02:19:32;8.22;47.93
71801;HTU21D;59647;55.838;37.292;2023-05-10T02:22:19;8.23;48.56
71801;HTU21D;59647;55.838;37.292;2023-05-10T02:24:46;8.26;48.46
71801;HTU21D;59647;55.838;37.292;2023-05-10T02:27:15;8.28;48.92
71801;HTU21D;59647;55.838;37.292;2023-05-10T02:29:41;8.29;49.37
71801;HTU21D;59647;55.838;37.292;2023-05-10T02:32:08;8.31;49.50
71801;HTU21D;59647;55.838;37.292;2023-05-10T02:34:36;8.30;49.67
71801;HTU21D;59647;55.838;37.292;2023-05-10T02:37:02;8.29;49.59
71801;HTU21D;59647;55.838;37.292;2023-05-10T02:39:29;8.30;49.64
71801;HTU21D;59647;55.838;37.292;2023-05-10T02:41:58;8.32;50.80
71801;HTU21D;59647;55.838;37.292;2023-05-10T02:44:27;8.35;49.59
71801;HTU21D;59647;55.838;37.292;2023-05-10T02:46:57;8.42;48.76
71801;HTU21D;59647;55.838;37.292;2023-05-10T02:49:23;8.45;49.02
71801;HTU21D;59647;55.838;37.292;2023-05-10T02:51:56;8.48;48.73
71801;HTU21D;59647;55.838;37.292;2023-05-10T02:54:30;8.47;48.95
71801;HTU21D;59647;55.838;37.292;2023-05-10T02:57:00;8.50;50.34
71801;HTU21D;59647;55.838;37.292;2023-05-10T02:59:29;8.53;49.70
71801;HTU21D;59647;55.838;37.292;2023-05-10T03:01:56;8.59;49.50
71801;HTU21D;59647;55.838;37.292;2023-05-10T03:04:24;8.64;49.99
71801;HTU21D;59647;55.838;37.292;2023-05-10T03:07:00;8.72;50.20
71801;HTU21D;59647;55.838;37.292;2023-05-10T03:09:26;8.75;51.16
71801;HTU21D;59647;55.838;37.292;2023-05-10T03:12:21;8.75;52.26
71801;HTU21D;59647;55.838;37.292;2023-05-10T03:17:22;8.76;50.98
71801;HTU21D;59647;55.838;37.292;2023-05-10T03:19:56;8.82;51.14
71801;HTU21D;59647;55.838;37.292;2023-05-10T03:22:34;8.90;52.04
71801;HTU21D;59647;55.838;37.292;2023-05-10T03:25:06;8.97;50.93
71801;HTU21D;59647;55.838;37.292;2023-05-10T03:27:41;9.05;51.82
71801;HTU21D;59647;55.838;37.292;2023-05-10T03:30:11;9.14;50.40
71801;HTU21D;59647;55.838;37.292;2023-05-10T03:32:40;9.15;50.62
71801;HTU21D;59647;55.838;37.292;2023-05-10T03:35:10;9.19;50.43
71801;HTU21D;59647;55.838;37.292;2023-05-10T03:37:39;9.26;50.05
71801;HTU21D;59647;55.838;37.292;2023-05-10T03:40:08;9.35;49.32
71801;HTU21D;59647;55.838;37.292;2023-05-10T03:42:39;9.45;49.23
71801;HTU21D;59647;55.838;37.292;2023-05-10T03:45:07;9.55;50.20
71801;HTU21D;59647;55.838;37.292;2023-05-10T03:47:34;9.64;49.79
71801;HTU21D;59647;55.838;37.292;2023-05-10T03:50:02;9.72;49.95
71801;HTU21D;59647;55.838;37.292;2023-05-10T03:52:31;9.81;50.79
71801;HTU21D;59647;55.838;37.292;2023-05-10T03:55:00;9.90;49.79
71801;HTU21D;59647;55.838;37.292;2023-05-10T03:57:26;9.97;49.36
71801;HTU21D;59647;55.838;37.292;2023-05-10T03:59:56;9.97;49.82
71801;HTU21D;59647;55.838;37.292;2023-05-10T04:02:23;10.07;49.21
71801;HTU21D;59647;55.838;37.292;2023-05-10T04:04:50;10.15;48.14
71801;HTU21D;59647;55.838;37.292;2023-05-10T04:07:18;10.22;48.57
71801;HTU21D;59647;55.838;37.292;2023-05-10T04:09:45;10.31;48.49
71801;HTU21D;59647;55.838;37.292;2023-05-10T04:12:18;10.43;48.60
71801;HTU21D;59647;55.838;37.292;2023-05-10T04:14:44;10.58;47.63
71801;HTU21D;59647;55.838;37.292;2023-05-10T04:17:14;10.72;47.25
71801;HTU21D;59647;55.838;37.292;2023-05-10T04:19:40;10.87;46.67
71801;HTU21D;59647;55.838;37.292;2023-05-10T04:22:07;10.97;47.60
71801;HTU21D;59647;55.838;37.292;2023-05-10T04:24:35;11.05;49.15
71801;HTU21D;59647;55.838;37.292;2023-05-10T04:27:01;11.15;47.77
71801;HTU21D;59647;55.838;37.292;2023-05-10T04:29:27;11.28;42.64
71801;HTU21D;59647;55.838;37.292;2023-05-10T04:31:53;11.37;41.72
71801;HTU21D;59647;55.838;37.292;2023-05-10T04:34:23;11.44;39.56
71801;HTU21D;59647;55.838;37.292;2023-05-10T04:36:48;11.54;40.46
71801;HTU21D;59647;55.838;37.292;2023-05-10T04:39:14;11.61;37.70
71801;HTU21D;59647;55.838;37.292;2023-05-10T04:41:40;11.60;37.21
71801;HTU21D;59647;55.838;37.292;2023-05-10T04:44:07;11.66;35.43
71801;HTU21D;59647;55.838;37.292;2023-05-10T04:46:33;11.72;35.49
71801;HTU21D;59647;55.838;37.292;2023-05-10T04:48:59;11.78;34.06
71801;HTU21D;59647;55.838;37.292;2023-05-10T04:51:26;11.84;35.00
71801;HTU21D;59647;55.838;37.292;2023-05-10T04:53:52;11.91;34.19
71801;HTU21D;59647;55.838;37.292;2023-05-10T04:56:19;11.99;33.47
71801;HTU21D;59647;55.838;37.292;2023-05-10T04:58:45;12.06;34.14
71801;HTU21D;59647;55.838;37.292;2023-05-10T05:01:11;12.17;32.68
71801;HTU21D;59647;55.838;37.292;2023-05-10T05:03:38;12.25;33.89
71801;HTU21D;59647;55.838;37.292;2023-05-10T05:06:07;12.30;32.64
71801;HTU21D;59647;55.838;37.292;2023-05-10T05:08:33;12.36;32.31
71801;HTU21D;59647;55.838;37.292;2023-05-10T05:10:59;12.47;33.17
71801;HTU21D;59647;55.838;37.292;2023-05-10T05:13:25;12.53;32.91
71801;HTU21D;59647;55.838;37.292;2023-05-10T05:15:51;12.66;33.08
71801;HTU21D;59647;55.838;37.292;2023-05-10T05:18:20;12.75;33.25
71801;HTU21D;59647;55.838;37.292;2023-05-10T05:20:46;12.85;32.81
71801;HTU21D;59647;55.838;37.292;2023-05-10T05:23:14;12.95;33.89
71801;HTU21D;59647;55.838;37.292;2023-05-10T05:25:43;13.16;32.45
71801;HTU21D;59647;55.838;37.292;2023-05-10T05:28:12;13.30;32.75
71801;HTU21D;59647;55.838;37.292;2023-05-10T05:30:40;13.44;32.93
71801;HTU21D;59647;55.838;37.292;2023-05-10T05:33:07;13.62;33.05
71801;HTU21D;59647;55.838;37.292;2023-05-10T05:35:33;13.81;32.96
71801;HTU21D;59647;55.838;37.292;2023-05-10T05:38:02;13.96;32.91
71801;HTU21D;59647;55.838;37.292;2023-05-10T05:40:28;14.14;32.13
71801;HTU21D;59647;55.838;37.292;2023-05-10T05:42:55;14.26;30.33
71801;HTU21D;59647;55.838;37.292;2023-05-10T05:45:22;14.40;30.90
71801;HTU21D;59647;55.838;37.292;2023-05-10T05:47:50;14.56;31.83
71801;HTU21D;59647;55.838;37.292;2023-05-10T05:50:17;14.73;31.50
71801;HTU21D;59647;55.838;37.292;2023-05-10T05:52:45;14.82;30.61
71801;HTU21D;59647;55.838;37.292;2023-05-10T05:55:11;15.00;31.64
71801;HTU21D;59647;55.838;37.292;2023-05-10T05:57:37;15.17;31.20
71801;HTU21D;59647;55.838;37.292;2023-05-10T06:00:04;15.36;31.46
71801;HTU21D;59647;55.838;37.292;2023-05-10T06:02:38;15.52;31.31
71801;HTU21D;59647;55.838;37.292;2023-05-10T06:05:04;15.70;31.42
71801;HTU21D;59647;55.838;37.292;2023-05-10T06:07:30;15.87;29.96
71801;HTU21D;59647;55.838;37.292;2023-05-10T06:09:56;15.96;30.42
71801;HTU21D;59647;55.838;37.292;2023-05-10T06:12:24;16.02;29.37
71801;HTU21D;59647;55.838;37.292;2023-05-10T06:14:50;16.03;28.10
71801;HTU21D;59647;55.838;37.292;2023-05-10T06:17:16;15.96;28.04
71801;HTU21D;59647;55.838;37.292;2023-05-10T06:19:42;16.05;29.49
71801;HTU21D;59647;55.838;37.292;2023-05-10T06:22:08;16.14;29.12
71801;HTU21D;59647;55.838;37.292;2023-05-10T06:24:37;16.35;30.38
71801;HTU21D;59647;55.838;37.292;2023-05-10T06:27:06;16.51;29.45
71801;HTU21D;59647;55.838;37.292;2023-05-10T06:29:32;16.64;29.25
71801;HTU21D;59647;55.838;37.292;2023-05-10T06:31:58;16.86;30.09
71801;HTU21D;59647;55.838;37.292;2023-05-10T06:34:25;17.09;30.67
71801;HTU21D;59647;55.838;37.292;2023-05-10T06:36:51;17.19;27.91
71801;HTU21D;59647;55.838;37.292;2023-05-10T06:39:18;17.03;28.98
71801;HTU21D;59647;55.838;37.292;2023-05-10T06:41:43;17.14;28.92
71801;HTU21D;59647;55.838;37.292;2023-05-10T06:44:09;17.06;27.22
71801;HTU21D;59647;55.838;37.292;2023-05-10T06:46:37;17.05;28.33
71801;HTU21D;59647;55.838;37.292;2023-05-10T06:49:02;17.05;27.76
71801;HTU21D;59647;55.838;37.292;2023-05-10T06:51:30;17.18;28.08
71801;HTU21D;59647;55.838;37.292;2023-05-10T06:53:56;17.30;26.86
71801;HTU21D;59647;55.838;37.292;2023-05-10T06:56:22;17.41;28.49
71801;HTU21D;59647;55.838;37.292;2023-05-10T06:58:48;17.60;27.58
71801;HTU21D;59647;55.838;37.292;2023-05-10T07:01:14;17.68;27.74
71801;HTU21D;59647;55.838;37.292;2023-05-10T07:03:41;17.83;28.71
71801;HTU21D;59647;55.838;37.292;2023-05-10T07:06:09;17.97;27.78
71801;HTU21D;59647;55.838;37.292;2023-05-10T07:08:36;18.04;27.38
71801;HTU21D;59647;55.838;37.292;2023-05-10T07:11:05;18.10;28.00
71801;HTU21D;59647;55.838;37.292;2023-05-10T07:13:33;18.14;27.10
71801;HTU21D;59647;55.838;37.292;2023-05-10T07:16:13;18.14;27.41
71801;HTU21D;59647;55.838;37.292;2023-05-10T07:18:43;18.09;27.04
71801;HTU21D;59647;55.838;37.292;2023-05-10T07:21:10;18.08;27.58
71801;HTU21D;59647;55.838;37.292;2023-05-10T07:23:37;18.14;26.49
71801;HTU21D;59647;55.838;37.292;2023-05-10T07:26:07;18.15;26.24
71801;HTU21D;59647;55.838;37.292;2023-05-10T07:28:37;18.15;25.81
71801;HTU21D;59647;55.838;37.292;2023-05-10T07:31:06;18.26;27.10
71801;HTU21D;59647;55.838;37.292;2023-05-10T07:33:34;18.37;26.03
71801;HTU21D;59647;55.838;37.292;2023-05-10T07:36:03;18.59;27.91
71801;HTU21D;59647;55.838;37.292;2023-05-10T07:38:33;18.86;27.33
71801;HTU21D;59647;55.838;37.292;2023-05-10T07:41:00;18.93;26.20
71801;HTU21D;59647;55.838;37.292;2023-05-10T07:43:29;19.07;26.38
71801;HTU21D;59647;55.838;37.292;2023-05-10T07:46:00;19.17;26.09
71801;HTU21D;59647;55.838;37.292;2023-05-10T07:48:28;19.40;27.02
71801;HTU21D;59647;55.838;37.292;2023-05-10T07:50:57;19.57;26.00
71801;HTU21D;59647;55.838;37.292;2023-05-10T07:53:27;19.47;23.56
71801;HTU21D;59647;55.838;37.292;2023-05-10T07:55:58;19.35;24.88
71801;HTU21D;59647;55.838;37.292;2023-05-10T07:58:24;19.25;24.59
71801;HTU21D;59647;55.838;37.292;2023-05-10T08:00:52;19.31;24.17
71801;HTU21D;59647;55.838;37.292;2023-05-10T08:03:19;19.30;25.22
71801;HTU21D;59647;55.838;37.292;2023-05-10T08:05:47;19.38;24.62
71801;HTU21D;59647;55.838;37.292;2023-05-10T08:08:15;19.40;24.19
71801;HTU21D;59647;55.838;37.292;2023-05-10T08:10:43;19.44;22.64
71801;HTU21D;59647;55.838;37.292;2023-05-10T08:13:10;19.66;22.99
71801;HTU21D;59647;55.838;37.292;2023-05-10T08:15:36;20.16;25.01
71801;HTU21D;59647;55.838;37.292;2023-05-10T08:18:04;20.54;23.62
71801;HTU21D;59647;55.838;37.292;2023-05-10T08:20:30;20.89;24.22
71801;HTU21D;59647;55.838;37.292;2023-05-10T08:22:57;21.37;23.76
71801;HTU21D;59647;55.838;37.292;2023-05-10T08:25:23;21.65;21.34
71801;HTU21D;59647;55.838;37.292;2023-05-10T08:27:49;21.73;19.57
71801;HTU21D;59647;55.838;37.292;2023-05-10T08:30:17;21.74;19.31
71801;HTU21D;59647;55.838;37.292;2023-05-10T08:32:46;21.88;22.18
71801;HTU21D;59647;55.838;37.292;2023-05-10T08:35:12;22.44;22.87
71801;HTU21D;59647;55.838;37.292;2023-05-10T08:37:38;22.94;20.43
71801;HTU21D;59647;55.838;37.292;2023-05-10T08:40:05;0.00;0.00
71801;HTU21D;59647;55.838;37.292;2023-05-10T08:42:36;0.00;0.00
71801;HTU21D;59647;55.838;37.292;2023-05-10T08:45:04;0.00;0.00
71801;HTU21D;59647;55.838;37.292;2023-05-10T08:47:32;0.00;0.00
71801;HTU21D;59647;55.838;37.292;2023-05-10T08:50:02;0.00;0.00
71801;HTU21D;59647;55.838;37.292;2023-05-10T08:52:31;0.00;0.00
71801;HTU21D;59647;55.838;37.292;2023-05-10T08:55:05;0.00;0.00
71801;HTU21D;59647;55.838;37.292;2023-05-10T08:57:32;0.00;0.00
71801;HTU21D;59647;55.838;37.292;2023-05-10T09:00:01;0.00;0.00
71801;HTU21D;59647;55.838;37.292;2023-05-10T09:02:35;0.00;0.00
71801;HTU21D;59647;55.838;37.292;2023-05-10T09:05:01;0.00;0.00
71801;HTU21D;59647;55.838;37.292;2023-05-10T09:07:31;0.00;0.00
71801;HTU21D;59647;55.838;37.292;2023-05-10T09:09:57;0.00;0.00
71801;HTU21D;59647;55.838;37.292;2023-05-10T09:12:24;0.00;0.00
71801;HTU21D;59647;55.838;37.292;2023-05-10T09:14:50;0.00;0.00
71801;HTU21D;59647;55.838;37.292;2023-05-10T09:17:18;0.00;0.00
71801;HTU21D;59647;55.838;37.292;2023-05-10T09:19:45;0.00;0.00
71801;HTU21D;59647;55.838;37.292;2023-05-10T09:22:11;0.00;0.00
71801;HTU21D;59647;55.838;37.292;2023-05-10T09:24:40;0.00;0.00
71801;HTU21D;59647;55.838;37.292;2023-05-10T09:27:11;0.00;0.00
71801;HTU21D;59647;55.838;37.292;2023-05-10T09:29:42;0.00;0.00
71801;HTU21D;59647;55.838;37.292;2023-05-10T09:32:10;0.00;0.00
71801;HTU21D;59647;55.838;37.292;2023-05-10T09:34:36;0.00;0.00
71801;HTU21D;59647;55.838;37.292;2023-05-10T09:37:05;0.00;0.00
71801;HTU21D;59647;55.838;37.292;2023-05-10T09:39:38;0.00;0.00
71801;HTU21D;59647;55.838;37.292;2023-05-10T09:42:08;0.00;0.00
71801;HTU21D;59647;55.838;37.292;2023-05-10T09:44:35;0.00;0.00
71801;HTU21D;59647;55.838;37.292;2023-05-10T09:47:02;0.00;0.00
71801;HTU21D;59647;55.838;37.292;2023-05-10T09:49:28;0.00;0.00
71801;HTU21D;59647;55.838;37.292;2023-05-10T09:52:05;0.00;0.00
71801;HTU21D;59647;55.838;37.292;2023-05-10T09:54:33;0.00;0.00
71801;HTU21D;59647;55.838;37.292;2023-05-10T09:57:00;0.00;0.00
71801;HTU21D;59647;55.838;37.292;2023-05-10T09:59:27;0.00;0.00
71801;HTU21D;59647;55.838;37.292;2023-05-10T10:02:00;0.00;0.00
71801;HTU21D;59647;55.838;37.292;2023-05-10T10:04:26;22.98;18.68
71801;HTU21D;59647;55.838;37.292;2023-05-10T10:07:02;23.03;18.53
71801;HTU21D;59647;55.838;37.292;2023-05-10T10:09:30;22.82;18.08
71801;HTU21D;59647;55.838;37.292;2023-05-10T10:11:57;22.49;18.72
71801;HTU21D;59647;55.838;37.292;2023-05-10T10:14:23;22.50;18.60
71801;HTU21D;59647;55.838;37.292;2023-05-10T10:16:54;22.60;18.86
71801;HTU21D;59647;55.838;37.292;2023-05-10T10:19:21;22.67;18.07
71801;HTU21D;59647;55.838;37.292;2023-05-10T10:21:50;22.85;18.72
71801;HTU21D;59647;55.838;37.292;2023-05-10T10:24:16;23.06;18.35
71801;HTU21D;59647;55.838;37.292;2023-05-10T10:26:44;23.10;18.83
71801;HTU21D;59647;55.838;37.292;2023-05-10T10:29:20;23.05;18.00
71801;HTU21D;59647;55.838;37.292;2023-05-10T10:34:54;22.98;18.29
71801;HTU21D;59647;55.838;37.292;2023-05-10T10:37:21;22.83;18.15
71801;HTU21D;59647;55.838;37.292;2023-05-10T10:39:52;22.97;18.06
71801;HTU21D;59647;55.838;37.292;2023-05-10T10:42:46;22.66;16.71
71801;HTU21D;59647;55.838;37.292;2023-05-10T10:45:12;22.09;18.56
71801;HTU21D;59647;55.838;37.292;2023-05-10T10:47:38;21.61;17.13
71801;HTU21D;59647;55.838;37.292;2023-05-10T10:50:06;21.36;19.24
71801;HTU21D;59647;55.838;37.292;2023-05-10T10:52:38;21.09;17.99
71801;HTU21D;59647;55.838;37.292;2023-05-10T10:57:56;20.84;18.44
71801;HTU21D;59647;55.838;37.292;2023-05-10T11:00:35;20.77;18.38
71801;HTU21D;59647;55.838;37.292;2023-05-10T11:03:10;20.70;18.58
71801;HTU21D;59647;55.838;37.292;2023-05-10T11:05:49;20.81;19.10
71801;HTU21D;59647;55.838;37.292;2023-05-10T11:13:46;21.10;18.36
71801;HTU21D;59647;55.838;37.292;2023-05-10T11:19:12;21.61;18.55
71801;HTU21D;59647;55.838;37.292;2023-05-10T11:21:47;21.84;18.46
71801;HTU21D;59647;55.838;37.292;2023-05-10T11:24:19;22.02;17.99
71801;HTU21D;59647;55.838;37.292;2023-05-10T11:26:45;22.34;18.40
71801;HTU21D;59647;55.838;37.292;2023-05-10T11:29:13;22.62;18.93
71801;HTU21D;59647;55.838;37.292;2023-05-10T11:31:47;22.65;18.42
71801;HTU21D;59647;55.838;37.292;2023-05-10T11:36:52;21.72;18.46
71801;HTU21D;59647;55.838;37.292;2023-05-10T11:39:21;21.52;17.13
71801;HTU21D;59647;55.838;37.292;2023-05-10T11:41:52;21.27;18.19
71801;HTU21D;59647;55.838;37.292;2023-05-10T11:44:19;21.10;18.80
71801;HTU21D;59647;55.838;37.292;2023-05-10T11:46:45;21.01;18.67
71801;HTU21D;59647;55.838;37.292;2023-05-10T11:49:14;21.19;18.92
71801;HTU21D;59647;55.838;37.292;2023-05-10T11:51:40;21.37;18.99
71801;HTU21D;59647;55.838;37.292;2023-05-10T11:54:11;21.68;19.05
71801;HTU21D;59647;55.838;37.292;2023-05-10T11:56:40;21.83;18.96
71801;HTU21D;59647;55.838;37.292;2023-05-10T11:59:07;22.05;18.64
71801;HTU21D;59647;55.838;37.292;2023-05-10T12:01:34;22.16;18.57
71801;HTU21D;59647;55.838;37.292;2023-05-10T12:04:02;22.02;18.14
71801;HTU21D;59647;55.838;37.292;2023-05-10T12:06:32;22.04;18.51
71801;HTU21D;59647;55.838;37.292;2023-05-10T12:09:06;22.19;18.73
71801;HTU21D;59647;55.838;37.292;2023-05-10T12:11:37;22.26;18.31
71801;HTU21D;59647;55.838;37.292;2023-05-10T12:14:04;22.42;18.10
71801;HTU21D;59647;55.838;37.292;2023-05-10T12:16:31;22.56;18.64
71801;HTU21D;59647;55.838;37.292;2023-05-10T12:19:00;22.31;18.69
71801;HTU21D;59647;55.838;37.292;2023-05-10T12:21:30;21.90;18.05
71801;HTU21D;59647;55.838;37.292;2023-05-10T12:24:03;21.83;18.25
71801;HTU21D;59647;55.838;37.292;2023-05-10T12:26:29;21.96;19.10
71801;HTU21D;59647;55.838;37.292;2023-05-10T12:29:18;21.78;18.57
71801;HTU21D;59647;55.838;37.292;2023-05-10T12:31:55;21.49;18.73
71801;HTU21D;59647;55.838;37.292;2023-05-10T12:34:30;21.48;18.98
71801;HTU21D;59647;55.838;37.292;2023-05-10T12:37:02;21.42;18.09
71801;HTU21D;59647;55.838;37.292;2023-05-10T12:39:39;21.72;18.27
71801;HTU21D;59647;55.838;37.292;2023-05-10T12:42:10;22.05;18.37
71801;HTU21D;59647;55.838;37.292;2023-05-10T12:44:38;22.37;18.73
71801;HTU21D;59647;55.838;37.292;2023-05-10T12:47:04;22.81;18.75
71801;HTU21D;59647;55.838;37.292;2023-05-10T12:49:31;23.09;17.05
71801;HTU21D;59647;55.838;37.292;2023-05-10T12:51:57;23.11;18.53
71801;HTU21D;59647;55.838;37.292;2023-05-10T12:54:25;22.83;18.38
71801;HTU21D;59647;55.838;37.292;2023-05-10T12:56:52;22.69;17.95
71801;HTU21D;59647;55.838;37.292;2023-05-10T12:59:18;22.41;17.83
71801;HTU21D;59647;55.838;37.292;2023-05-10T13:01:46;22.23;18.17
71801;HTU21D;59647;55.838;37.292;2023-05-10T13:04:16;22.20;17.91
71801;HTU21D;59647;55.838;37.292;2023-05-10T13:06:49;21.89;17.26
71801;HTU21D;59647;55.838;37.292;2023-05-10T13:09:17;21.63;18.65
71801;HTU21D;59647;55.838;37.292;2023-05-10T13:11:44;21.35;16.92
71801;HTU21D;59647;55.838;37.292;2023-05-10T13:14:11;21.17;18.98
71801;HTU21D;59647;55.838;37.292;2023-05-10T13:16:39;20.87;18.71
71801;HTU21D;59647;55.838;37.292;2023-05-10T13:19:06;20.69;18.54
71801;HTU21D;59647;55.838;37.292;2023-05-10T13:21:32;20.54;19.22
71801;HTU21D;59647;55.838;37.292;2023-05-10T13:24:00;20.30;19.05
71801;HTU21D;59647;55.838;37.292;2023-05-10T13:26:27;20.22;19.43
71801;HTU21D;59647;55.838;37.292;2023-05-10T13:28:54;20.12;19.37
71801;HTU21D;59647;55.838;37.292;2023-05-10T13:31:22;20.07;19.52
71801;HTU21D;59647;55.838;37.292;2023-05-10T13:33:48;19.98;19.41
71801;HTU21D;59647;55.838;37.292;2023-05-10T13:36:14;19.96;19.41
71801;HTU21D;59647;55.838;37.292;2023-05-10T13:38:42;20.11;19.54
71801;HTU21D;59647;55.838;37.292;2023-05-10T13:41:10;20.15;19.50
71801;HTU21D;59647;55.838;37.292;2023-05-10T13:43:36;20.13;18.99
71801;HTU21D;59647;55.838;37.292;2023-05-10T13:46:03;19.99;19.37
71801;HTU21D;59647;55.838;37.292;2023-05-10T13:48:31;20.09;19.66
71801;HTU21D;59647;55.838;37.292;2023-05-10T13:50:58;20.14;19.79
71801;HTU21D;59647;55.838;37.292;2023-05-10T13:53:24;20.02;19.70
71801;HTU21D;59647;55.838;37.292;2023-05-10T13:55:50;19.76;19.66
71801;HTU21D;59647;55.838;37.292;2023-05-10T13:58:17;19.72;19.77
71801;HTU21D;59647;55.838;37.292;2023-05-10T14:00:43;19.88;20.02
71801;HTU21D;59647;55.838;37.292;2023-05-10T14:03:11;19.87;19.92
71801;HTU21D;59647;55.838;37.292;2023-05-10T14:05:37;19.86;19.41
71801;HTU21D;59647;55.838;37.292;2023-05-10T14:08:03;19.57;19.43
71801;HTU21D;59647;55.838;37.292;2023-05-10T14:10:30;19.44;20.04
71801;HTU21D;59647;55.838;37.292;2023-05-10T14:12:56;19.38;20.17
71801;HTU21D;59647;55.838;37.292;2023-05-10T14:15:22;19.25;20.13
71801;HTU21D;59647;55.838;37.292;2023-05-10T14:17:50;19.16;20.11
71801;HTU21D;59647;55.838;37.292;2023-05-10T14:20:17;19.10;20.21
71801;HTU21D;59647;55.838;37.292;2023-05-10T14:22:45;19.13;20.41
71801;HTU21D;59647;55.838;37.292;2023-05-10T14:25:11;19.08;20.26
71801;HTU21D;59647;55.838;37.292;2023-05-10T14:27:38;19.02;20.36
71801;HTU21D;59647;55.838;37.292;2023-05-10T14:30:10;19.06;20.51
71801;HTU21D;59647;55.838;37.292;2023-05-10T14:32:36;18.98;20.39
71801;HTU21D;59647;55.838;37.292;2023-05-10T14:35:03;18.96;20.54
71801;HTU21D;59647;55.838;37.292;2023-05-10T14:37:30;18.93;20.63
71801;HTU21D;59647;55.838;37.292;2023-05-10T14:39:57;18.91;20.91
71801;HTU21D;59647;55.838;37.292;2023-05-10T14:42:24;18.89;20.86
71801;HTU21D;59647;55.838;37.292;2023-05-10T14:44:49;18.89;20.91
71801;HTU21D;59647;55.838;37.292;2023-05-10T14:47:17;18.94;20.99
71801;HTU21D;59647;55.838;37.292;2023-05-10T14:49:43;18.94;21.00
71801;HTU21D;59647;55.838;37.292;2023-05-10T14:52:09;18.92;20.79
71801;HTU21D;59647;55.838;37.292;2023-05-10T14:54:41;18.87;20.99
71801;HTU21D;59647;55.838;37.292;2023-05-10T14:57:08;18.86;20.81
71801;HTU21D;59647;55.838;37.292;2023-05-10T14:59:34;18.93;21.03
71801;HTU21D;59647;55.838;37.292;2023-05-10T15:02:02;18.89;20.90
71801;HTU21D;59647;55.838;37.292;2023-05-10T15:04:29;18.93;20.99
71801;HTU21D;59647;55.838;37.292;2023-05-10T15:06:57;18.82;20.82
71801;HTU21D;59647;55.838;37.292;2023-05-10T15:09:25;18.79;20.98
71801;HTU21D;59647;55.838;37.292;2023-05-10T15:11:51;18.78;20.99
71801;HTU21D;59647;55.838;37.292;2023-05-10T15:14:17;18.79;21.08
71801;HTU21D;59647;55.838;37.292;2023-05-10T15:16:45;18.78;21.05
71801;HTU21D;59647;55.838;37.292;2023-05-10T15:19:12;18.72;21.15
71801;HTU21D;59647;55.838;37.292;2023-05-10T15:21:38;18.67;21.08
71801;HTU21D;59647;55.838;37.292;2023-05-10T15:24:09;18.64;21.25
71801;HTU21D;59647;55.838;37.292;2023-05-10T15:26:41;18.62;21.24
71801;HTU21D;59647;55.838;37.292;2023-05-10T15:29:09;18.58;21.01
71801;HTU21D;59647;55.838;37.292;2023-05-10T15:31:35;18.53;21.14
71801;HTU21D;59647;55.838;37.292;2023-05-10T15:34:02;18.52;21.34
71801;HTU21D;59647;55.838;37.292;2023-05-10T15:36:28;18.48;21.44
71801;HTU21D;59647;55.838;37.292;2023-05-10T15:38:56;18.46;21.64
71801;HTU21D;59647;55.838;37.292;2023-05-10T15:41:24;18.48;21.82
71801;HTU21D;59647;55.838;37.292;2023-05-10T15:43:53;18.43;21.76
71801;HTU21D;59647;55.838;37.292;2023-05-10T15:46:19;18.38;21.71
71801;HTU21D;59647;55.838;37.292;2023-05-10T15:48:46;18.37;21.72
71801;HTU21D;59647;55.838;37.292;2023-05-10T15:51:15;18.37;21.66